EZY1016 EBBR-LFBO
Flight info
| Callsign | EZY1016 |
|---|---|
| Flight time | 1h 16m |
| Altitude | 33000 |
| Route | CIV N872 LESDO DCT KOVIN DCT DUCRA UM728 RESMI UN857 DISAK/N0445F350 DCT DIRMO DCT GUERE DCT EVPOK DCT NARAK |
| Aircraft | A320/M-SDE3FGHIRWY/LB1 |
Departure
| Time | 2026-05-07 06:25 |
|---|---|
| Airport | Brussels Airport (EBBR) |
Arrival
| Time | 2026-05-07 07:42 |
|---|---|
| Airport | Toulouse-Blagnac Airport (LFBO) |
| Time | Latitude | Longitude | Altitude | Speed | Heading |
|---|---|---|---|---|---|
| 2026-05-07 05:59 | 50.90173 | 4.47759 | 140 ft | 0 kts | 156° |
| 2026-05-07 06:15 | 50.90176 | 4.47757 | 140 ft | 3 kts | 156° |
| 2026-05-07 06:16 | 50.90200 | 4.47739 | 140 ft | 4 kts | 155° |
| 2026-05-07 06:16 | 50.90220 | 4.47725 | 139 ft | 4 kts | 152° |
| 2026-05-07 06:16 | 50.90242 | 4.47702 | 139 ft | 4 kts | 137° |
| 2026-05-07 06:16 | 50.90256 | 4.47678 | 138 ft | 0 kts | 128° |
| 2026-05-07 06:18 | 50.90256 | 4.47680 | 138 ft | 1 kts | 127° |
| 2026-05-07 06:18 | 50.90261 | 4.47736 | 138 ft | 10 kts | 70° |
| 2026-05-07 06:19 | 50.90295 | 4.47862 | 139 ft | 13 kts | 65° |
| 2026-05-07 06:19 | 50.90328 | 4.47973 | 140 ft | 10 kts | 65° |
| 2026-05-07 06:19 | 50.90372 | 4.48041 | 140 ft | 9 kts | 356° |
| 2026-05-07 06:19 | 50.90425 | 4.48050 | 140 ft | 7 kts | 43° |
| 2026-05-07 06:20 | 50.90455 | 4.48139 | 142 ft | 12 kts | 65° |
| 2026-05-07 06:20 | 50.90501 | 4.48298 | 140 ft | 19 kts | 66° |
| 2026-05-07 06:20 | 50.90561 | 4.48510 | 137 ft | 23 kts | 65° |
| 2026-05-07 06:20 | 50.90633 | 4.48757 | 124 ft | 27 kts | 65° |
| 2026-05-07 06:21 | 50.90691 | 4.48959 | 127 ft | 20 kts | 65° |
| 2026-05-07 06:21 | 50.90751 | 4.49169 | 130 ft | 21 kts | 65° |
| 2026-05-07 06:21 | 50.90814 | 4.49388 | 128 ft | 23 kts | 65° |
| 2026-05-07 06:21 | 50.90872 | 4.49587 | 135 ft | 18 kts | 65° |
| 2026-05-07 06:22 | 50.90919 | 4.49750 | 126 ft | 17 kts | 65° |
| 2026-05-07 06:22 | 50.91008 | 4.49888 | 125 ft | 0 kts | 28° |
| 2026-05-07 06:24 | 50.91015 | 4.49894 | 132 ft | 5 kts | 28° |
| 2026-05-07 06:24 | 50.91081 | 4.49941 | 120 ft | 12 kts | 20° |
| 2026-05-07 06:24 | 50.91136 | 4.49891 | 121 ft | 9 kts | 276° |
| 2026-05-07 06:24 | 50.91113 | 4.49791 | 122 ft | 20 kts | 246° |
| 2026-05-07 06:25 | 50.90945 | 4.49205 | 133 ft | 93 kts | 245° |
| 2026-05-07 06:25 | 50.90590 | 4.47979 | 143 ft | 148 kts | 245° |
| 2026-05-07 06:25 | 50.90136 | 4.46391 | 582 ft | 159 kts | 246° |
| 2026-05-07 06:25 | 50.89677 | 4.44784 | 1273 ft | 161 kts | 248° |
| 2026-05-07 06:26 | 50.89317 | 4.43036 | 1742 ft | 177 kts | 254° |
| 2026-05-07 06:26 | 50.88935 | 4.41060 | 2055 ft | 198 kts | 252° |
| 2026-05-07 06:26 | 50.88504 | 4.38852 | 2393 ft | 219 kts | 252° |
| 2026-05-07 06:26 | 50.87848 | 4.36559 | 2765 ft | 242 kts | 231° |
| 2026-05-07 06:27 | 50.86448 | 4.34909 | 3280 ft | 262 kts | 206° |
| 2026-05-07 06:27 | 50.84795 | 4.33604 | 4155 ft | 268 kts | 206° |
| 2026-05-07 06:27 | 50.83119 | 4.32279 | 5074 ft | 271 kts | 207° |
| 2026-05-07 06:27 | 50.81422 | 4.30930 | 5989 ft | 274 kts | 207° |
| 2026-05-07 06:28 | 50.79731 | 4.29575 | 6869 ft | 278 kts | 207° |
| 2026-05-07 06:28 | 50.78085 | 4.27882 | 7729 ft | 281 kts | 221° |
| 2026-05-07 06:28 | 50.76780 | 4.25633 | 8553 ft | 283 kts | 235° |
| 2026-05-07 06:28 | 50.75615 | 4.23047 | 9431 ft | 286 kts | 235° |
| 2026-05-07 06:29 | 50.74465 | 4.20512 | 10245 ft | 290 kts | 235° |
| 2026-05-07 06:29 | 50.73243 | 4.17828 | 10594 ft | 313 kts | 235° |
| 2026-05-07 06:29 | 50.71925 | 4.14938 | 10863 ft | 335 kts | 234° |
| 2026-05-07 06:29 | 50.70541 | 4.11911 | 11451 ft | 344 kts | 234° |
| 2026-05-07 06:30 | 50.69135 | 4.08836 | 12175 ft | 348 kts | 234° |
| 2026-05-07 06:30 | 50.67713 | 4.05726 | 12896 ft | 351 kts | 234° |
| 2026-05-07 06:30 | 50.66277 | 4.02590 | 13596 ft | 354 kts | 234° |
| 2026-05-07 06:30 | 50.64827 | 3.99425 | 14285 ft | 358 kts | 234° |
| 2026-05-07 06:31 | 50.63361 | 3.96233 | 14961 ft | 361 kts | 234° |
| 2026-05-07 06:31 | 50.61881 | 3.93015 | 15625 ft | 364 kts | 234° |
| 2026-05-07 06:31 | 50.60387 | 3.89769 | 16259 ft | 367 kts | 234° |
| 2026-05-07 06:31 | 50.58843 | 3.86547 | 16862 ft | 371 kts | 229° |
| 2026-05-07 06:32 | 50.56973 | 3.83730 | 17447 ft | 375 kts | 218° |
| 2026-05-07 06:32 | 50.55547 | 3.82179 | 17824 ft | 377 kts | 211° |
| 2026-05-07 06:32 | 50.53175 | 3.80367 | 18386 ft | 381 kts | 204° |
| 2026-05-07 06:32 | 50.50729 | 3.78718 | 18944 ft | 384 kts | 204° |
| 2026-05-07 06:33 | 50.48265 | 3.77052 | 19488 ft | 387 kts | 204° |
| 2026-05-07 06:33 | 50.45789 | 3.75369 | 20008 ft | 390 kts | 204° |
| 2026-05-07 06:33 | 50.43281 | 3.73662 | 20518 ft | 393 kts | 204° |
| 2026-05-07 06:33 | 50.40764 | 3.71949 | 21028 ft | 396 kts | 204° |
| 2026-05-07 06:34 | 50.38230 | 3.70225 | 21510 ft | 399 kts | 204° |
| 2026-05-07 06:34 | 50.35671 | 3.68487 | 21982 ft | 402 kts | 204° |
| 2026-05-07 06:34 | 50.33097 | 3.66741 | 22435 ft | 405 kts | 204° |
| 2026-05-07 06:34 | 50.30502 | 3.64985 | 22877 ft | 407 kts | 204° |
| 2026-05-07 06:35 | 50.27890 | 3.63220 | 23314 ft | 410 kts | 204° |
| 2026-05-07 06:35 | 50.25262 | 3.61447 | 23738 ft | 413 kts | 204° |
| 2026-05-07 06:35 | 50.22615 | 3.59665 | 24154 ft | 415 kts | 204° |
| 2026-05-07 06:35 | 50.19951 | 3.57877 | 24556 ft | 418 kts | 204° |
| 2026-05-07 06:36 | 50.17273 | 3.56079 | 24956 ft | 421 kts | 204° |
| 2026-05-07 06:36 | 50.14614 | 3.54293 | 25325 ft | 423 kts | 204° |
| 2026-05-07 06:36 | 50.11905 | 3.52478 | 25702 ft | 425 kts | 204° |
| 2026-05-07 06:36 | 50.09177 | 3.50656 | 26059 ft | 428 kts | 204° |
| 2026-05-07 06:37 | 50.06437 | 3.48824 | 26421 ft | 430 kts | 204° |
| 2026-05-07 06:37 | 50.03680 | 3.46983 | 26774 ft | 432 kts | 204° |
| 2026-05-07 06:37 | 50.00911 | 3.45137 | 27122 ft | 434 kts | 204° |
| 2026-05-07 06:37 | 49.98127 | 3.43285 | 27452 ft | 436 kts | 204° |
| 2026-05-07 06:38 | 49.95326 | 3.41422 | 27781 ft | 439 kts | 204° |
| 2026-05-07 06:38 | 49.92510 | 3.39549 | 28101 ft | 441 kts | 204° |
| 2026-05-07 06:38 | 49.89682 | 3.37673 | 28421 ft | 443 kts | 204° |
| 2026-05-07 06:38 | 49.86842 | 3.35791 | 28726 ft | 445 kts | 204° |
| 2026-05-07 06:39 | 49.83985 | 3.33898 | 29021 ft | 447 kts | 204° |
| 2026-05-07 06:39 | 49.81124 | 3.32005 | 29302 ft | 449 kts | 204° |
| 2026-05-07 06:39 | 49.78244 | 3.30102 | 29560 ft | 450 kts | 204° |
| 2026-05-07 06:39 | 49.75356 | 3.28195 | 29848 ft | 452 kts | 204° |
| 2026-05-07 06:40 | 49.72455 | 3.26280 | 30122 ft | 454 kts | 204° |
| 2026-05-07 06:40 | 49.69546 | 3.24365 | 30383 ft | 456 kts | 204° |
| 2026-05-07 06:40 | 49.66621 | 3.22442 | 30683 ft | 456 kts | 203° |
| 2026-05-07 06:40 | 49.63707 | 3.20532 | 31033 ft | 455 kts | 203° |
| 2026-05-07 06:41 | 49.60833 | 3.18653 | 31362 ft | 454 kts | 203° |
| 2026-05-07 06:41 | 49.57921 | 3.16745 | 31689 ft | 454 kts | 204° |
| 2026-05-07 06:41 | 49.55018 | 3.14842 | 32011 ft | 454 kts | 204° |
| 2026-05-07 06:41 | 49.52112 | 3.12942 | 32330 ft | 454 kts | 204° |
| 2026-05-07 06:42 | 49.49220 | 3.11006 | 32648 ft | 453 kts | 207° |
| 2026-05-07 06:42 | 49.46504 | 3.08569 | 32942 ft | 452 kts | 214° |
| 2026-05-07 06:42 | 49.41277 | 3.03210 | 33055 ft | 449 kts | 214° |
| 2026-05-07 06:43 | 49.36084 | 2.97916 | 33054 ft | 448 kts | 214° |
| 2026-05-07 06:43 | 49.30883 | 2.92652 | 33054 ft | 448 kts | 214° |
| 2026-05-07 06:44 | 49.25675 | 2.87415 | 33053 ft | 448 kts | 214° |
| 2026-05-07 06:44 | 49.20469 | 2.82181 | 33053 ft | 448 kts | 214° |
| 2026-05-07 06:45 | 49.15300 | 2.76993 | 33053 ft | 447 kts | 214° |
| 2026-05-07 06:45 | 49.10097 | 2.71767 | 33052 ft | 447 kts | 214° |
| 2026-05-07 06:46 | 49.04887 | 2.66560 | 33050 ft | 447 kts | 214° |
| 2026-05-07 06:46 | 48.99675 | 2.61374 | 33049 ft | 447 kts | 214° |
| 2026-05-07 06:47 | 48.94466 | 2.56207 | 33046 ft | 447 kts | 214° |
| 2026-05-07 06:47 | 48.89251 | 2.51035 | 33043 ft | 447 kts | 214° |
| 2026-05-07 06:48 | 48.84043 | 2.45878 | 33044 ft | 447 kts | 214° |
| 2026-05-07 06:48 | 48.78828 | 2.40735 | 33039 ft | 447 kts | 214° |
| 2026-05-07 06:49 | 48.73614 | 2.35602 | 33037 ft | 447 kts | 214° |
| 2026-05-07 06:49 | 48.68393 | 2.30472 | 33036 ft | 447 kts | 214° |
| 2026-05-07 06:50 | 48.63164 | 2.25354 | 33036 ft | 448 kts | 213° |
| 2026-05-07 06:50 | 48.57929 | 2.20492 | 33043 ft | 448 kts | 206° |
| 2026-05-07 06:51 | 48.51997 | 2.17613 | 33036 ft | 450 kts | 192° |
| 2026-05-07 06:51 | 48.45914 | 2.15668 | 33040 ft | 450 kts | 193° |
| 2026-05-07 06:52 | 48.39786 | 2.13689 | 33040 ft | 450 kts | 193° |
| 2026-05-07 06:52 | 48.33659 | 2.11699 | 33039 ft | 451 kts | 193° |
| 2026-05-07 06:53 | 48.27457 | 2.10452 | 33045 ft | 452 kts | 179° |
| 2026-05-07 06:53 | 48.21209 | 2.11523 | 33046 ft | 452 kts | 172° |
| 2026-05-07 06:54 | 48.14966 | 2.12850 | 33049 ft | 453 kts | 172° |
| 2026-05-07 06:54 | 48.08666 | 2.13430 | 33387 ft | 455 kts | 178° |
| 2026-05-07 06:55 | 48.05500 | 2.13602 | 33694 ft | 455 kts | 178° |
| 2026-05-07 06:55 | 48.02336 | 2.13786 | 34010 ft | 455 kts | 178° |
| 2026-05-07 06:55 | 47.99174 | 2.13979 | 34320 ft | 454 kts | 178° |
| 2026-05-07 06:55 | 47.96017 | 2.14174 | 34625 ft | 454 kts | 178° |
| 2026-05-07 06:56 | 47.92859 | 2.14367 | 34912 ft | 454 kts | 178° |
| 2026-05-07 06:56 | 47.89744 | 2.14553 | 35031 ft | 454 kts | 178° |
| 2026-05-07 06:56 | 47.83423 | 2.14933 | 35056 ft | 454 kts | 178° |
| 2026-05-07 06:57 | 47.77109 | 2.15303 | 35054 ft | 454 kts | 178° |
| 2026-05-07 06:57 | 47.70794 | 2.15665 | 35054 ft | 454 kts | 178° |
| 2026-05-07 06:58 | 47.64482 | 2.16028 | 35054 ft | 454 kts | 178° |
| 2026-05-07 06:58 | 47.58167 | 2.16389 | 35055 ft | 454 kts | 178° |
| 2026-05-07 06:59 | 47.51860 | 2.16757 | 35057 ft | 454 kts | 178° |
| 2026-05-07 06:59 | 47.45582 | 2.17123 | 35059 ft | 453 kts | 178° |
| 2026-05-07 07:00 | 47.39278 | 2.17481 | 35060 ft | 453 kts | 178° |
| 2026-05-07 07:00 | 47.32974 | 2.17835 | 35058 ft | 453 kts | 178° |
| 2026-05-07 07:01 | 47.26678 | 2.18198 | 35058 ft | 453 kts | 178° |
| 2026-05-07 07:01 | 47.20373 | 2.18565 | 35056 ft | 453 kts | 178° |
| 2026-05-07 07:02 | 47.14071 | 2.18935 | 35054 ft | 453 kts | 178° |
| 2026-05-07 07:02 | 47.07771 | 2.19102 | 35054 ft | 452 kts | 185° |
| 2026-05-07 07:03 | 47.01504 | 2.18356 | 35052 ft | 452 kts | 185° |
| 2026-05-07 07:03 | 46.95228 | 2.17632 | 35050 ft | 452 kts | 185° |
| 2026-05-07 07:04 | 46.88957 | 2.16911 | 35048 ft | 452 kts | 185° |
| 2026-05-07 07:04 | 46.82725 | 2.16196 | 35049 ft | 452 kts | 185° |
| 2026-05-07 07:05 | 46.76453 | 2.15473 | 35053 ft | 452 kts | 185° |
| 2026-05-07 07:05 | 46.70173 | 2.14749 | 35055 ft | 453 kts | 185° |
| 2026-05-07 07:06 | 46.63886 | 2.14035 | 35055 ft | 453 kts | 185° |
| 2026-05-07 07:06 | 46.57601 | 2.13321 | 35059 ft | 453 kts | 185° |
| 2026-05-07 07:07 | 46.51323 | 2.12605 | 35060 ft | 453 kts | 185° |
| 2026-05-07 07:07 | 46.45041 | 2.11891 | 35061 ft | 453 kts | 185° |
| 2026-05-07 07:08 | 46.38766 | 2.11177 | 35056 ft | 452 kts | 185° |
| 2026-05-07 07:08 | 46.32489 | 2.10459 | 35055 ft | 452 kts | 185° |
| 2026-05-07 07:09 | 46.26211 | 2.09751 | 35057 ft | 452 kts | 185° |
| 2026-05-07 07:09 | 46.20017 | 2.08349 | 35052 ft | 450 kts | 199° |
| 2026-05-07 07:10 | 46.14442 | 2.04367 | 35047 ft | 447 kts | 216° |
| 2026-05-07 07:10 | 46.09386 | 1.99239 | 35044 ft | 447 kts | 216° |
| 2026-05-07 07:11 | 46.04290 | 1.94105 | 35042 ft | 447 kts | 216° |
| 2026-05-07 07:11 | 45.99181 | 1.88983 | 35038 ft | 447 kts | 216° |
| 2026-05-07 07:12 | 45.94080 | 1.83867 | 35031 ft | 447 kts | 216° |
| 2026-05-07 07:12 | 45.88976 | 1.78761 | 35027 ft | 447 kts | 216° |
| 2026-05-07 07:13 | 45.83875 | 1.73672 | 35026 ft | 446 kts | 216° |
| 2026-05-07 07:13 | 45.78784 | 1.68597 | 35022 ft | 446 kts | 216° |
| 2026-05-07 07:14 | 45.73682 | 1.63535 | 35025 ft | 446 kts | 216° |
| 2026-05-07 07:14 | 45.68577 | 1.58484 | 35020 ft | 446 kts | 216° |
| 2026-05-07 07:15 | 45.63469 | 1.53433 | 35023 ft | 446 kts | 216° |
| 2026-05-07 07:15 | 45.58364 | 1.48389 | 35023 ft | 446 kts | 216° |
| 2026-05-07 07:16 | 45.53247 | 1.43366 | 35026 ft | 446 kts | 213° |
| 2026-05-07 07:16 | 45.47528 | 1.39957 | 35024 ft | 449 kts | 193° |
| 2026-05-07 07:17 | 45.44423 | 1.39414 | 35023 ft | 451 kts | 182° |
| 2026-05-07 07:17 | 45.41289 | 1.39670 | 35027 ft | 452 kts | 172° |
| 2026-05-07 07:17 | 45.35178 | 1.41565 | 35017 ft | 453 kts | 168° |
| 2026-05-07 07:18 | 45.29018 | 1.43548 | 35014 ft | 453 kts | 168° |
| 2026-05-07 07:18 | 45.22865 | 1.45521 | 35021 ft | 453 kts | 168° |
| 2026-05-07 07:19 | 45.16710 | 1.47492 | 35015 ft | 453 kts | 168° |
| 2026-05-07 07:19 | 45.10551 | 1.49449 | 35019 ft | 453 kts | 168° |
| 2026-05-07 07:20 | 45.04388 | 1.51406 | 35020 ft | 454 kts | 169° |
| 2026-05-07 07:20 | 45.01348 | 1.52370 | 34800 ft | 455 kts | 169° |
| 2026-05-07 07:20 | 44.98246 | 1.53352 | 33857 ft | 460 kts | 169° |
| 2026-05-07 07:21 | 44.95106 | 1.54345 | 32826 ft | 466 kts | 168° |
| 2026-05-07 07:21 | 44.91924 | 1.55357 | 31769 ft | 472 kts | 168° |
| 2026-05-07 07:21 | 44.88705 | 1.56379 | 30738 ft | 476 kts | 168° |
| 2026-05-07 07:21 | 44.85487 | 1.57398 | 30122 ft | 470 kts | 168° |
| 2026-05-07 07:22 | 44.82310 | 1.58402 | 29426 ft | 466 kts | 168° |
| 2026-05-07 07:22 | 44.80175 | 1.59075 | 28965 ft | 463 kts | 168° |
| 2026-05-07 07:22 | 44.77041 | 1.60061 | 28298 ft | 459 kts | 168° |
| 2026-05-07 07:22 | 44.73979 | 1.61023 | 27651 ft | 454 kts | 168° |
| 2026-05-07 07:23 | 44.70908 | 1.61985 | 27000 ft | 449 kts | 168° |
| 2026-05-07 07:23 | 44.67872 | 1.62937 | 26358 ft | 445 kts | 168° |
| 2026-05-07 07:23 | 44.64864 | 1.63883 | 25724 ft | 441 kts | 168° |
| 2026-05-07 07:23 | 44.61884 | 1.64820 | 25095 ft | 437 kts | 168° |
| 2026-05-07 07:24 | 44.58932 | 1.65745 | 24487 ft | 432 kts | 168° |
| 2026-05-07 07:24 | 44.56013 | 1.66656 | 23888 ft | 427 kts | 168° |
| 2026-05-07 07:24 | 44.53128 | 1.67556 | 23323 ft | 422 kts | 168° |
| 2026-05-07 07:24 | 44.50275 | 1.68446 | 22773 ft | 418 kts | 168° |
| 2026-05-07 07:25 | 44.44673 | 1.70192 | 21753 ft | 407 kts | 168° |
| 2026-05-07 07:25 | 44.41922 | 1.71048 | 21273 ft | 402 kts | 168° |
| 2026-05-07 07:25 | 44.39205 | 1.71890 | 20787 ft | 397 kts | 168° |
| 2026-05-07 07:26 | 44.36522 | 1.72721 | 20292 ft | 393 kts | 168° |
| 2026-05-07 07:26 | 44.33854 | 1.73507 | 19799 ft | 388 kts | 172° |
| 2026-05-07 07:26 | 44.31176 | 1.73674 | 19304 ft | 383 kts | 185° |
| 2026-05-07 07:26 | 44.28573 | 1.73015 | 18826 ft | 379 kts | 198° |
| 2026-05-07 07:27 | 44.26168 | 1.71591 | 18384 ft | 374 kts | 210° |
| 2026-05-07 07:27 | 44.24011 | 1.69601 | 17941 ft | 371 kts | 216° |
| 2026-05-07 07:27 | 44.21897 | 1.67564 | 17496 ft | 368 kts | 215° |
| 2026-05-07 07:27 | 44.19794 | 1.65549 | 17064 ft | 366 kts | 215° |
| 2026-05-07 07:28 | 44.17702 | 1.63550 | 16629 ft | 363 kts | 215° |
| 2026-05-07 07:28 | 44.15622 | 1.61568 | 16196 ft | 361 kts | 215° |
| 2026-05-07 07:28 | 44.13552 | 1.59601 | 15771 ft | 359 kts | 215° |
| 2026-05-07 07:28 | 44.11526 | 1.57673 | 15349 ft | 357 kts | 215° |
| 2026-05-07 07:29 | 44.09484 | 1.55734 | 14924 ft | 354 kts | 215° |
| 2026-05-07 07:29 | 44.07456 | 1.53809 | 14499 ft | 352 kts | 215° |
| 2026-05-07 07:29 | 44.05444 | 1.51898 | 14081 ft | 350 kts | 215° |
| 2026-05-07 07:29 | 44.03443 | 1.49998 | 13672 ft | 347 kts | 215° |
| 2026-05-07 07:30 | 44.01455 | 1.48112 | 13258 ft | 345 kts | 215° |
| 2026-05-07 07:30 | 43.99467 | 1.46272 | 12850 ft | 343 kts | 211° |
| 2026-05-07 07:30 | 43.97298 | 1.44909 | 12443 ft | 342 kts | 199° |
| 2026-05-07 07:30 | 43.94987 | 1.44185 | 12028 ft | 341 kts | 191° |
| 2026-05-07 07:31 | 43.92653 | 1.43635 | 11629 ft | 339 kts | 191° |
| 2026-05-07 07:31 | 43.90336 | 1.43088 | 11224 ft | 336 kts | 191° |
| 2026-05-07 07:31 | 43.88032 | 1.42544 | 10823 ft | 335 kts | 191° |
| 2026-05-07 07:31 | 43.85739 | 1.42033 | 10500 ft | 329 kts | 186° |
| 2026-05-07 07:32 | 43.83498 | 1.42135 | 10374 ft | 318 kts | 171° |
| 2026-05-07 07:32 | 43.81421 | 1.43021 | 10244 ft | 308 kts | 155° |
| 2026-05-07 07:32 | 43.79631 | 1.44552 | 10084 ft | 299 kts | 143° |
| 2026-05-07 07:32 | 43.78009 | 1.46306 | 9956 ft | 294 kts | 142° |
| 2026-05-07 07:33 | 43.76390 | 1.48054 | 9661 ft | 295 kts | 143° |
| 2026-05-07 07:33 | 43.74776 | 1.49790 | 9302 ft | 293 kts | 143° |
| 2026-05-07 07:33 | 43.73170 | 1.51512 | 8943 ft | 291 kts | 143° |
| 2026-05-07 07:33 | 43.71576 | 1.53226 | 8584 ft | 289 kts | 143° |
| 2026-05-07 07:34 | 43.69996 | 1.54928 | 8234 ft | 287 kts | 142° |
| 2026-05-07 07:34 | 43.68427 | 1.56617 | 7886 ft | 285 kts | 143° |
| 2026-05-07 07:34 | 43.66865 | 1.58293 | 7549 ft | 283 kts | 143° |
| 2026-05-07 07:34 | 43.65310 | 1.59955 | 7211 ft | 282 kts | 143° |
| 2026-05-07 07:35 | 43.63756 | 1.61589 | 6858 ft | 280 kts | 147° |
| 2026-05-07 07:35 | 43.62021 | 1.62745 | 6510 ft | 276 kts | 164° |
| 2026-05-07 07:35 | 43.60143 | 1.63175 | 6191 ft | 272 kts | 181° |
| 2026-05-07 07:35 | 43.58310 | 1.62953 | 6077 ft | 258 kts | 188° |
| 2026-05-07 07:36 | 43.56574 | 1.62660 | 5900 ft | 250 kts | 188° |
| 2026-05-07 07:36 | 43.54845 | 1.62374 | 5825 ft | 252 kts | 188° |
| 2026-05-07 07:36 | 43.53105 | 1.62088 | 5486 ft | 250 kts | 188° |
| 2026-05-07 07:36 | 43.51383 | 1.61808 | 5148 ft | 248 kts | 187° |
| 2026-05-07 07:37 | 43.49720 | 1.61248 | 4795 ft | 246 kts | 206° |
| 2026-05-07 07:37 | 43.48352 | 1.59881 | 4447 ft | 243 kts | 229° |
| 2026-05-07 07:37 | 43.47478 | 1.57909 | 4124 ft | 240 kts | 252° |
| 2026-05-07 07:37 | 43.47034 | 1.55763 | 4052 ft | 227 kts | 259° |
| 2026-05-07 07:38 | 43.47135 | 1.53682 | 3948 ft | 218 kts | 291° |
| 2026-05-07 07:38 | 43.48029 | 1.52040 | 3702 ft | 217 kts | 322° |
| 2026-05-07 07:38 | 43.49242 | 1.50817 | 3472 ft | 216 kts | 322° |
| 2026-05-07 07:38 | 43.50439 | 1.49567 | 3220 ft | 215 kts | 322° |
| 2026-05-07 07:39 | 43.51606 | 1.48357 | 2942 ft | 205 kts | 322° |
| 2026-05-07 07:39 | 43.52725 | 1.47199 | 2700 ft | 199 kts | 322° |
| 2026-05-07 07:39 | 43.53819 | 1.46065 | 2407 ft | 192 kts | 322° |
| 2026-05-07 07:39 | 43.54852 | 1.44994 | 2153 ft | 180 kts | 322° |
| 2026-05-07 07:40 | 43.55804 | 1.44007 | 1944 ft | 162 kts | 322° |
| 2026-05-07 07:40 | 43.56662 | 1.43116 | 1723 ft | 149 kts | 322° |
| 2026-05-07 07:40 | 43.57472 | 1.42276 | 1527 ft | 143 kts | 322° |
| 2026-05-07 07:40 | 43.58262 | 1.41455 | 1345 ft | 141 kts | 322° |
| 2026-05-07 07:41 | 43.59042 | 1.40645 | 1157 ft | 140 kts | 322° |
| 2026-05-07 07:41 | 43.59817 | 1.39840 | 962 ft | 139 kts | 322° |
| 2026-05-07 07:41 | 43.60588 | 1.39037 | 774 ft | 139 kts | 323° |
| 2026-05-07 07:41 | 43.61358 | 1.38243 | 616 ft | 138 kts | 322° |
| 2026-05-07 07:42 | 43.62115 | 1.37446 | 486 ft | 132 kts | 322° |
| 2026-05-07 07:42 | 43.62676 | 1.36865 | 487 ft | 59 kts | 323° |
| 2026-05-07 07:42 | 43.62872 | 1.36664 | 485 ft | 24 kts | 323° |
| 2026-05-07 07:42 | 43.62985 | 1.36632 | 488 ft | 14 kts | 19° |
| 2026-05-07 07:43 | 43.63058 | 1.36707 | 489 ft | 13 kts | 58° |
| 2026-05-07 07:43 | 43.63110 | 1.36807 | 488 ft | 12 kts | 53° |
| 2026-05-07 07:43 | 43.63093 | 1.36896 | 487 ft | 10 kts | 130° |
| 2026-05-07 07:43 | 43.63056 | 1.36967 | 495 ft | 9 kts | 121° |
| 2026-05-07 07:44 | 43.63027 | 1.37059 | 495 ft | 15 kts | 101° |
| 2026-05-07 07:44 | 43.62967 | 1.37180 | 492 ft | 17 kts | 142° |
| 2026-05-07 07:44 | 43.62933 | 1.37249 | 487 ft | 3 kts | 55° |
| 2026-05-07 07:44 | 43.62950 | 1.37277 | 492 ft | 5 kts | 45° |
| 2026-05-07 07:45 | 43.62974 | 1.37307 | 495 ft | 4 kts | 44° |
| 2026-05-07 07:45 | 43.62989 | 1.37328 | 495 ft | 0 kts | 45° |